sensor_id;sensor_type;location;lat;lon;timestamp;temperature;humidity
17587;DHT22;8912;52.336;17.172;2022-11-23T00:01:52;2.30;99.90
17587;DHT22;8912;52.336;17.172;2022-11-23T00:04:21;2.30;99.90
17587;DHT22;8912;52.336;17.172;2022-11-23T00:06:51;2.30;99.90
17587;DHT22;8912;52.336;17.172;2022-11-23T00:09:19;2.40;99.90
17587;DHT22;8912;52.336;17.172;2022-11-23T00:11:49;2.40;99.90
17587;DHT22;8912;52.336;17.172;2022-11-23T00:14:17;2.40;99.90
17587;DHT22;8912;52.336;17.172;2022-11-23T00:16:46;2.40;99.90
17587;DHT22;8912;52.336;17.172;2022-11-23T00:19:16;2.40;99.90
17587;DHT22;8912;52.336;17.172;2022-11-23T00:21:44;2.40;99.90
17587;DHT22;8912;52.336;17.172;2022-11-23T00:24:13;2.40;99.90
17587;DHT22;8912;52.336;17.172;2022-11-23T00:26:42;2.40;99.90
17587;DHT22;8912;52.336;17.172;2022-11-23T00:29:10;2.40;99.90
17587;DHT22;8912;52.336;17.172;2022-11-23T00:31:39;2.40;99.90
17587;DHT22;8912;52.336;17.172;2022-11-23T00:34:07;2.30;99.90
17587;DHT22;8912;52.336;17.172;2022-11-23T00:36:37;2.30;99.90
17587;DHT22;8912;52.336;17.172;2022-11-23T00:39:07;2.30;99.90
17587;DHT22;8912;52.336;17.172;2022-11-23T00:41:35;2.30;99.90
17587;DHT22;8912;52.336;17.172;2022-11-23T00:44:04;2.30;99.90
17587;DHT22;8912;52.336;17.172;2022-11-23T00:46:34;2.20;99.90
17587;DHT22;8912;52.336;17.172;2022-11-23T00:49:04;2.30;99.90
17587;DHT22;8912;52.336;17.172;2022-11-23T00:51:35;2.30;99.90
17587;DHT22;8912;52.336;17.172;2022-11-23T00:54:05;2.30;99.90
17587;DHT22;8912;52.336;17.172;2022-11-23T00:56:34;2.30;99.90
17587;DHT22;8912;52.336;17.172;2022-11-23T00:59:04;2.30;99.90
17587;DHT22;8912;52.336;17.172;2022-11-23T01:01:34;2.40;99.90
17587;DHT22;8912;52.336;17.172;2022-11-23T01:04:07;2.30;99.90
17587;DHT22;8912;52.336;17.172;2022-11-23T01:06:38;2.20;99.90
17587;DHT22;8912;52.336;17.172;2022-11-23T01:09:12;2.20;99.90
17587;DHT22;8912;52.336;17.172;2022-11-23T01:11:41;2.30;99.90
17587;DHT22;8912;52.336;17.172;2022-11-23T01:14:10;2.30;99.90
17587;DHT22;8912;52.336;17.172;2022-11-23T01:16:40;2.30;99.90
17587;DHT22;8912;52.336;17.172;2022-11-23T01:19:11;2.30;99.90
17587;DHT22;8912;52.336;17.172;2022-11-23T01:21:40;2.20;99.90
17587;DHT22;8912;52.336;17.172;2022-11-23T01:24:13;2.30;99.90
17587;DHT22;8912;52.336;17.172;2022-11-23T01:26:42;2.20;99.90
17587;DHT22;8912;52.336;17.172;2022-11-23T01:29:11;2.20;99.90
17587;DHT22;8912;52.336;17.172;2022-11-23T01:31:40;2.40;99.90
17587;DHT22;8912;52.336;17.172;2022-11-23T01:34:14;2.20;99.90
17587;DHT22;8912;52.336;17.172;2022-11-23T01:36:43;2.20;99.90
17587;DHT22;8912;52.336;17.172;2022-11-23T01:39:13;2.20;99.90
17587;DHT22;8912;52.336;17.172;2022-11-23T01:41:43;2.20;99.90
17587;DHT22;8912;52.336;17.172;2022-11-23T01:44:24;2.20;99.90
17587;DHT22;8912;52.336;17.172;2022-11-23T01:46:54;2.20;99.90
17587;DHT22;8912;52.336;17.172;2022-11-23T01:49:25;2.10;99.90
17587;DHT22;8912;52.336;17.172;2022-11-23T01:51:58;2.10;99.90
17587;DHT22;8912;52.336;17.172;2022-11-23T01:54:31;2.10;99.90
17587;DHT22;8912;52.336;17.172;2022-11-23T01:57:04;2.10;99.90
17587;DHT22;8912;52.336;17.172;2022-11-23T01:59:34;2.00;99.90
17587;DHT22;8912;52.336;17.172;2022-11-23T02:02:05;2.00;99.90
17587;DHT22;8912;52.336;17.172;2022-11-23T02:04:38;1.90;99.90
17587;DHT22;8912;52.336;17.172;2022-11-23T02:07:13;1.90;99.90
17587;DHT22;8912;52.336;17.172;2022-11-23T02:09:46;1.80;99.90
17587;DHT22;8912;52.336;17.172;2022-11-23T02:12:15;1.80;99.90
17587;DHT22;8912;52.336;17.172;2022-11-23T02:14:44;1.80;99.90
17587;DHT22;8912;52.336;17.172;2022-11-23T02:17:13;1.80;99.90
17587;DHT22;8912;52.336;17.172;2022-11-23T02:19:49;1.80;99.90
17587;DHT22;8912;52.336;17.172;2022-11-23T02:22:29;1.70;99.90
17587;DHT22;8912;52.336;17.172;2022-11-23T02:25:06;1.70;99.90
17587;DHT22;8912;52.336;17.172;2022-11-23T02:27:37;1.60;99.90
17587;DHT22;8912;52.336;17.172;2022-11-23T02:30:13;1.60;99.90
17587;DHT22;8912;52.336;17.172;2022-11-23T02:32:42;1.60;99.90
17587;DHT22;8912;52.336;17.172;2022-11-23T02:35:11;1.60;99.90
17587;DHT22;8912;52.336;17.172;2022-11-23T02:37:42;1.50;99.90
17587;DHT22;8912;52.336;17.172;2022-11-23T02:40:22;1.50;99.90
17587;DHT22;8912;52.336;17.172;2022-11-23T02:42:55;1.50;99.90
17587;DHT22;8912;52.336;17.172;2022-11-23T02:45:30;1.50;99.90
17587;DHT22;8912;52.336;17.172;2022-11-23T02:48:01;1.50;99.90
17587;DHT22;8912;52.336;17.172;2022-11-23T02:50:30;1.50;99.90
17587;DHT22;8912;52.336;17.172;2022-11-23T02:52:59;1.40;99.90
17587;DHT22;8912;52.336;17.172;2022-11-23T02:55:31;1.40;99.90
17587;DHT22;8912;52.336;17.172;2022-11-23T02:58:02;1.40;99.90
17587;DHT22;8912;52.336;17.172;2022-11-23T03:00:32;1.30;99.90
17587;DHT22;8912;52.336;17.172;2022-11-23T03:03:01;1.50;99.90
17587;DHT22;8912;52.336;17.172;2022-11-23T03:05:32;1.40;99.90
17587;DHT22;8912;52.336;17.172;2022-11-23T03:08:04;1.40;99.90
17587;DHT22;8912;52.336;17.172;2022-11-23T03:10:33;1.30;99.90
17587;DHT22;8912;52.336;17.172;2022-11-23T03:13:04;1.20;99.90
17587;DHT22;8912;52.336;17.172;2022-11-23T03:15:35;1.20;99.90
17587;DHT22;8912;52.336;17.172;2022-11-23T03:18:04;1.10;99.90
17587;DHT22;8912;52.336;17.172;2022-11-23T03:20:34;1.10;99.90
17587;DHT22;8912;52.336;17.172;2022-11-23T03:23:04;1.10;99.90
17587;DHT22;8912;52.336;17.172;2022-11-23T03:25:32;1.10;99.90
17587;DHT22;8912;52.336;17.172;2022-11-23T03:28:05;1.10;99.90
17587;DHT22;8912;52.336;17.172;2022-11-23T03:30:33;1.10;99.90
17587;DHT22;8912;52.336;17.172;2022-11-23T03:33:04;1.10;99.90
17587;DHT22;8912;52.336;17.172;2022-11-23T03:35:34;1.20;99.90
17587;DHT22;8912;52.336;17.172;2022-11-23T03:38:17;1.20;99.90
17587;DHT22;8912;52.336;17.172;2022-11-23T03:40:48;1.30;99.90
17587;DHT22;8912;52.336;17.172;2022-11-23T03:43:24;1.20;99.90
17587;DHT22;8912;52.336;17.172;2022-11-23T03:45:53;1.20;99.90
17587;DHT22;8912;52.336;17.172;2022-11-23T03:48:22;1.30;99.90
17587;DHT22;8912;52.336;17.172;2022-11-23T03:50:51;1.30;99.90
17587;DHT22;8912;52.336;17.172;2022-11-23T03:53:20;1.30;99.90
17587;DHT22;8912;52.336;17.172;2022-11-23T03:55:49;1.20;99.90
17587;DHT22;8912;52.336;17.172;2022-11-23T03:58:17;1.30;99.90
17587;DHT22;8912;52.336;17.172;2022-11-23T04:00:48;1.30;99.90
17587;DHT22;8912;52.336;17.172;2022-11-23T04:03:18;1.20;99.90
17587;DHT22;8912;52.336;17.172;2022-11-23T04:06:06;1.20;99.90
17587;DHT22;8912;52.336;17.172;2022-11-23T04:09:00;1.20;99.90
17587;DHT22;8912;52.336;17.172;2022-11-23T04:11:49;1.20;99.90
17587;DHT22;8912;52.336;17.172;2022-11-23T04:14:18;1.20;99.90
17587;DHT22;8912;52.336;17.172;2022-11-23T04:16:49;1.20;99.90
17587;DHT22;8912;52.336;17.172;2022-11-23T04:19:18;1.30;99.90
17587;DHT22;8912;52.336;17.172;2022-11-23T04:21:47;1.20;99.90
17587;DHT22;8912;52.336;17.172;2022-11-23T04:24:16;1.20;99.90
17587;DHT22;8912;52.336;17.172;2022-11-23T04:26:45;1.40;99.90
17587;DHT22;8912;52.336;17.172;2022-11-23T04:29:14;1.20;99.90
17587;DHT22;8912;52.336;17.172;2022-11-23T04:31:49;1.30;99.90
17587;DHT22;8912;52.336;17.172;2022-11-23T04:34:19;1.20;99.90
17587;DHT22;8912;52.336;17.172;2022-11-23T04:36:49;1.30;99.90
17587;DHT22;8912;52.336;17.172;2022-11-23T04:39:23;1.30;99.90
17587;DHT22;8912;52.336;17.172;2022-11-23T04:42:18;1.30;99.90
17587;DHT22;8912;52.336;17.172;2022-11-23T04:44:52;1.30;99.90
17587;DHT22;8912;52.336;17.172;2022-11-23T04:47:22;1.30;99.90
17587;DHT22;8912;52.336;17.172;2022-11-23T04:49:51;1.40;99.90
17587;DHT22;8912;52.336;17.172;2022-11-23T04:52:20;1.60;99.90
17587;DHT22;8912;52.336;17.172;2022-11-23T04:54:50;1.30;99.90
17587;DHT22;8912;52.336;17.172;2022-11-23T04:57:19;1.40;99.90
17587;DHT22;8912;52.336;17.172;2022-11-23T04:59:50;1.30;99.90
17587;DHT22;8912;52.336;17.172;2022-11-23T05:02:19;1.30;99.90
17587;DHT22;8912;52.336;17.172;2022-11-23T05:05:09;1.30;99.90
17587;DHT22;8912;52.336;17.172;2022-11-23T05:07:38;1.20;99.90
17587;DHT22;8912;52.336;17.172;2022-11-23T05:10:08;1.20;99.90
17587;DHT22;8912;52.336;17.172;2022-11-23T05:12:37;1.30;99.90
17587;DHT22;8912;52.336;17.172;2022-11-23T05:15:08;1.20;99.90
17587;DHT22;8912;52.336;17.172;2022-11-23T05:17:38;1.20;99.90
17587;DHT22;8912;52.336;17.172;2022-11-23T05:20:15;1.20;99.90
17587;DHT22;8912;52.336;17.172;2022-11-23T05:22:47;1.30;99.90
17587;DHT22;8912;52.336;17.172;2022-11-23T05:25:20;1.20;99.90
17587;DHT22;8912;52.336;17.172;2022-11-23T05:27:56;1.20;99.90
17587;DHT22;8912;52.336;17.172;2022-11-23T05:30:37;1.20;99.90
17587;DHT22;8912;52.336;17.172;2022-11-23T05:33:09;1.30;99.90
17587;DHT22;8912;52.336;17.172;2022-11-23T05:35:41;1.20;99.90
17587;DHT22;8912;52.336;17.172;2022-11-23T05:38:10;1.30;99.90
17587;DHT22;8912;52.336;17.172;2022-11-23T05:40:40;1.30;99.90
17587;DHT22;8912;52.336;17.172;2022-11-23T05:43:09;1.30;99.90
17587;DHT22;8912;52.336;17.172;2022-11-23T05:45:38;1.30;99.90
17587;DHT22;8912;52.336;17.172;2022-11-23T05:48:08;1.30;99.90
17587;DHT22;8912;52.336;17.172;2022-11-23T05:50:51;1.30;99.90
17587;DHT22;8912;52.336;17.172;2022-11-23T05:53:40;1.30;99.90
17587;DHT22;8912;52.336;17.172;2022-11-23T05:56:17;1.40;99.90
17587;DHT22;8912;52.336;17.172;2022-11-23T05:59:06;1.40;99.90
17587;DHT22;8912;52.336;17.172;2022-11-23T06:01:37;1.30;99.90
17587;DHT22;8912;52.336;17.172;2022-11-23T06:04:08;1.30;99.90
17587;DHT22;8912;52.336;17.172;2022-11-23T06:06:43;1.30;99.90
17587;DHT22;8912;52.336;17.172;2022-11-23T06:09:12;1.30;99.90
17587;DHT22;8912;52.336;17.172;2022-11-23T06:11:44;1.30;99.90
17587;DHT22;8912;52.336;17.172;2022-11-23T06:14:18;1.30;99.90
17587;DHT22;8912;52.336;17.172;2022-11-23T06:16:47;1.30;99.90
17587;DHT22;8912;52.336;17.172;2022-11-23T06:19:30;1.40;99.90
17587;DHT22;8912;52.336;17.172;2022-11-23T06:22:01;1.30;99.90
17587;DHT22;8912;52.336;17.172;2022-11-23T06:24:34;1.40;99.90
17587;DHT22;8912;52.336;17.172;2022-11-23T06:27:28;1.40;99.90
17587;DHT22;8912;52.336;17.172;2022-11-23T06:29:58;1.40;99.90
17587;DHT22;8912;52.336;17.172;2022-11-23T06:32:28;1.40;99.90
17587;DHT22;8912;52.336;17.172;2022-11-23T06:34:59;1.40;99.90
17587;DHT22;8912;52.336;17.172;2022-11-23T06:37:34;1.40;99.90
17587;DHT22;8912;52.336;17.172;2022-11-23T06:40:03;1.50;99.90
17587;DHT22;8912;52.336;17.172;2022-11-23T06:42:33;1.40;99.90
17587;DHT22;8912;52.336;17.172;2022-11-23T06:45:14;1.50;99.90
17587;DHT22;8912;52.336;17.172;2022-11-23T06:47:43;1.60;99.90
17587;DHT22;8912;52.336;17.172;2022-11-23T06:50:11;1.60;99.90
17587;DHT22;8912;52.336;17.172;2022-11-23T06:52:44;1.50;99.90
17587;DHT22;8912;52.336;17.172;2022-11-23T06:55:14;1.50;99.90
17587;DHT22;8912;52.336;17.172;2022-11-23T06:57:43;1.60;99.90
17587;DHT22;8912;52.336;17.172;2022-11-23T07:00:13;1.60;99.90
17587;DHT22;8912;52.336;17.172;2022-11-23T07:02:43;1.60;99.90
17587;DHT22;8912;52.336;17.172;2022-11-23T07:05:21;1.70;99.90
17587;DHT22;8912;52.336;17.172;2022-11-23T07:07:51;1.80;99.90
17587;DHT22;8912;52.336;17.172;2022-11-23T07:10:25;1.80;99.90
17587;DHT22;8912;52.336;17.172;2022-11-23T07:13:02;1.80;99.90
17587;DHT22;8912;52.336;17.172;2022-11-23T07:15:32;1.70;99.90
17587;DHT22;8912;52.336;17.172;2022-11-23T07:18:01;1.70;99.90
17587;DHT22;8912;52.336;17.172;2022-11-23T07:20:31;1.70;99.90
17587;DHT22;8912;52.336;17.172;2022-11-23T07:23:02;1.70;99.90
17587;DHT22;8912;52.336;17.172;2022-11-23T07:25:32;1.70;99.90
17587;DHT22;8912;52.336;17.172;2022-11-23T07:28:03;1.70;99.90
17587;DHT22;8912;52.336;17.172;2022-11-23T07:30:33;1.70;99.90
17587;DHT22;8912;52.336;17.172;2022-11-23T07:33:05;1.80;99.90
17587;DHT22;8912;52.336;17.172;2022-11-23T07:35:36;1.80;99.90
17587;DHT22;8912;52.336;17.172;2022-11-23T07:38:07;1.80;99.90
17587;DHT22;8912;52.336;17.172;2022-11-23T07:40:37;1.90;99.90
17587;DHT22;8912;52.336;17.172;2022-11-23T07:43:14;1.90;99.90
17587;DHT22;8912;52.336;17.172;2022-11-23T07:45:47;2.00;99.90
17587;DHT22;8912;52.336;17.172;2022-11-23T07:48:16;2.00;99.90
17587;DHT22;8912;52.336;17.172;2022-11-23T07:50:45;2.10;99.90
17587;DHT22;8912;52.336;17.172;2022-11-23T07:53:15;2.00;99.90
17587;DHT22;8912;52.336;17.172;2022-11-23T07:55:44;2.00;99.90
17587;DHT22;8912;52.336;17.172;2022-11-23T07:58:13;2.10;99.90
17587;DHT22;8912;52.336;17.172;2022-11-23T08:00:41;2.10;99.90
17587;DHT22;8912;52.336;17.172;2022-11-23T08:03:12;2.10;99.90
17587;DHT22;8912;52.336;17.172;2022-11-23T08:05:57;2.00;99.90
17587;DHT22;8912;52.336;17.172;2022-11-23T08:08:27;2.10;99.90
17587;DHT22;8912;52.336;17.172;2022-11-23T08:10:56;2.00;99.90
17587;DHT22;8912;52.336;17.172;2022-11-23T08:13:25;2.00;99.90
17587;DHT22;8912;52.336;17.172;2022-11-23T08:15:53;2.00;99.90
17587;DHT22;8912;52.336;17.172;2022-11-23T08:18:22;2.10;99.90
17587;DHT22;8912;52.336;17.172;2022-11-23T08:20:51;1.90;99.90
17587;DHT22;8912;52.336;17.172;2022-11-23T08:23:20;2.00;99.90
17587;DHT22;8912;52.336;17.172;2022-11-23T08:25:50;1.90;99.90
17587;DHT22;8912;52.336;17.172;2022-11-23T08:28:19;1.90;99.90
17587;DHT22;8912;52.336;17.172;2022-11-23T08:30:48;1.90;99.90
17587;DHT22;8912;52.336;17.172;2022-11-23T08:33:17;2.00;99.90
17587;DHT22;8912;52.336;17.172;2022-11-23T08:35:46;2.00;99.90
17587;DHT22;8912;52.336;17.172;2022-11-23T08:38:14;2.00;99.90
17587;DHT22;8912;52.336;17.172;2022-11-23T08:40:43;2.00;99.90
17587;DHT22;8912;52.336;17.172;2022-11-23T08:43:13;2.60;99.90
17587;DHT22;8912;52.336;17.172;2022-11-23T08:45:42;2.00;99.90
17587;DHT22;8912;52.336;17.172;2022-11-23T08:48:11;2.00;99.90
17587;DHT22;8912;52.336;17.172;2022-11-23T08:50:40;2.00;99.90
17587;DHT22;8912;52.336;17.172;2022-11-23T08:53:10;2.10;99.90
17587;DHT22;8912;52.336;17.172;2022-11-23T08:55:39;2.10;99.90
17587;DHT22;8912;52.336;17.172;2022-11-23T08:58:09;2.00;99.90
17587;DHT22;8912;52.336;17.172;2022-11-23T09:00:41;2.00;99.90
17587;DHT22;8912;52.336;17.172;2022-11-23T09:03:10;2.10;99.90
17587;DHT22;8912;52.336;17.172;2022-11-23T09:05:38;2.10;99.90
17587;DHT22;8912;52.336;17.172;2022-11-23T09:08:07;2.10;99.90
17587;DHT22;8912;52.336;17.172;2022-11-23T09:10:36;2.10;99.90
17587;DHT22;8912;52.336;17.172;2022-11-23T09:13:05;2.10;99.90
17587;DHT22;8912;52.336;17.172;2022-11-23T09:15:34;2.10;99.90
17587;DHT22;8912;52.336;17.172;2022-11-23T09:18:04;2.30;99.90
17587;DHT22;8912;52.336;17.172;2022-11-23T09:20:33;2.30;99.90
17587;DHT22;8912;52.336;17.172;2022-11-23T09:23:02;2.40;99.90
17587;DHT22;8912;52.336;17.172;2022-11-23T09:25:38;2.40;99.90
17587;DHT22;8912;52.336;17.172;2022-11-23T09:28:09;2.30;99.90
17587;DHT22;8912;52.336;17.172;2022-11-23T09:30:38;2.20;99.90
17587;DHT22;8912;52.336;17.172;2022-11-23T09:33:09;2.10;99.90
17587;DHT22;8912;52.336;17.172;2022-11-23T09:35:38;2.20;99.90
17587;DHT22;8912;52.336;17.172;2022-11-23T09:38:10;2.20;99.90
17587;DHT22;8912;52.336;17.172;2022-11-23T09:40:40;2.20;99.90
17587;DHT22;8912;52.336;17.172;2022-11-23T09:43:40;2.20;99.90
17587;DHT22;8912;52.336;17.172;2022-11-23T09:46:21;2.30;99.90
17587;DHT22;8912;52.336;17.172;2022-11-23T09:49:11;2.40;99.90
17587;DHT22;8912;52.336;17.172;2022-11-23T09:51:41;2.40;99.90
17587;DHT22;8912;52.336;17.172;2022-11-23T09:54:21;2.40;99.90
17587;DHT22;8912;52.336;17.172;2022-11-23T09:56:54;2.50;99.90
17587;DHT22;8912;52.336;17.172;2022-11-23T09:59:38;2.60;99.90
17587;DHT22;8912;52.336;17.172;2022-11-23T10:02:16;2.50;99.90
17587;DHT22;8912;52.336;17.172;2022-11-23T10:04:49;2.50;99.90
17587;DHT22;8912;52.336;17.172;2022-11-23T10:07:29;2.50;99.90
17587;DHT22;8912;52.336;17.172;2022-11-23T10:10:11;2.50;99.90
17587;DHT22;8912;52.336;17.172;2022-11-23T10:12:48;2.50;99.90
17587;DHT22;8912;52.336;17.172;2022-11-23T10:15:25;2.60;99.90
17587;DHT22;8912;52.336;17.172;2022-11-23T10:18:03;2.50;99.90
17587;DHT22;8912;52.336;17.172;2022-11-23T10:20:53;2.50;99.90
17587;DHT22;8912;52.336;17.172;2022-11-23T10:23:35;2.50;99.90
17587;DHT22;8912;52.336;17.172;2022-11-23T10:26:09;2.60;99.90
17587;DHT22;8912;52.336;17.172;2022-11-23T10:28:39;2.60;99.90
17587;DHT22;8912;52.336;17.172;2022-11-23T10:31:12;2.60;99.90
17587;DHT22;8912;52.336;17.172;2022-11-23T10:33:48;2.60;99.90
17587;DHT22;8912;52.336;17.172;2022-11-23T10:36:21;2.60;99.90
17587;DHT22;8912;52.336;17.172;2022-11-23T10:38:55;2.70;99.90
17587;DHT22;8912;52.336;17.172;2022-11-23T10:41:25;2.80;99.90
17587;DHT22;8912;52.336;17.172;2022-11-23T10:44:00;2.80;99.90
17587;DHT22;8912;52.336;17.172;2022-11-23T10:46:38;2.80;99.90
17587;DHT22;8912;52.336;17.172;2022-11-23T10:49:15;2.80;99.90
17587;DHT22;8912;52.336;17.172;2022-11-23T10:51:57;2.80;99.90
17587;DHT22;8912;52.336;17.172;2022-11-23T10:54:31;2.80;99.90
17587;DHT22;8912;52.336;17.172;2022-11-23T10:57:19;2.90;99.90
17587;DHT22;8912;52.336;17.172;2022-11-23T10:59:56;2.90;99.90
17587;DHT22;8912;52.336;17.172;2022-11-23T11:02:26;2.90;99.90
17587;DHT22;8912;52.336;17.172;2022-11-23T11:05:21;2.90;99.90
17587;DHT22;8912;52.336;17.172;2022-11-23T11:08:14;2.90;99.90
17587;DHT22;8912;52.336;17.172;2022-11-23T11:10:46;3.00;99.90
17587;DHT22;8912;52.336;17.172;2022-11-23T11:13:24;3.00;99.90
17587;DHT22;8912;52.336;17.172;2022-11-23T11:15:55;3.20;99.90
17587;DHT22;8912;52.336;17.172;2022-11-23T11:18:27;3.10;99.90
17587;DHT22;8912;52.336;17.172;2022-11-23T11:21:03;3.10;99.90
17587;DHT22;8912;52.336;17.172;2022-11-23T11:23:34;3.10;99.90
17587;DHT22;8912;52.336;17.172;2022-11-23T11:26:18;2.90;99.90
17587;DHT22;8912;52.336;17.172;2022-11-23T11:28:49;2.80;99.90
17587;DHT22;8912;52.336;17.172;2022-11-23T11:31:38;2.90;99.90
17587;DHT22;8912;52.336;17.172;2022-11-23T11:34:21;2.80;99.90
17587;DHT22;8912;52.336;17.172;2022-11-23T11:36:57;3.00;99.90
17587;DHT22;8912;52.336;17.172;2022-11-23T11:39:34;2.90;99.90
17587;DHT22;8912;52.336;17.172;2022-11-23T11:42:17;2.90;99.90
17587;DHT22;8912;52.336;17.172;2022-11-23T11:44:50;2.90;99.90
17587;DHT22;8912;52.336;17.172;2022-11-23T11:47:25;2.80;99.90
17587;DHT22;8912;52.336;17.172;2022-11-23T11:49:58;2.70;99.90
17587;DHT22;8912;52.336;17.172;2022-11-23T11:52:31;2.70;99.90
17587;DHT22;8912;52.336;17.172;2022-11-23T11:55:10;2.70;99.90
17587;DHT22;8912;52.336;17.172;2022-11-23T11:57:44;2.80;99.90
17587;DHT22;8912;52.336;17.172;2022-11-23T12:00:17;2.90;99.90
17587;DHT22;8912;52.336;17.172;2022-11-23T12:02:56;2.90;99.90
17587;DHT22;8912;52.336;17.172;2022-11-23T12:05:38;2.90;99.90
17587;DHT22;8912;52.336;17.172;2022-11-23T12:08:10;2.80;99.90
17587;DHT22;8912;52.336;17.172;2022-11-23T12:10:45;2.80;99.90
17587;DHT22;8912;52.336;17.172;2022-11-23T12:13:16;2.90;99.90
17587;DHT22;8912;52.336;17.172;2022-11-23T12:15:48;3.00;99.90
17587;DHT22;8912;52.336;17.172;2022-11-23T12:18:30;3.20;99.90
17587;DHT22;8912;52.336;17.172;2022-11-23T12:21:02;3.20;99.90
17587;DHT22;8912;52.336;17.172;2022-11-23T12:23:44;3.10;99.90
17587;DHT22;8912;52.336;17.172;2022-11-23T12:26:25;3.10;99.90
17587;DHT22;8912;52.336;17.172;2022-11-23T12:29:06;3.10;99.90
17587;DHT22;8912;52.336;17.172;2022-11-23T12:31:42;3.00;99.90
17587;DHT22;8912;52.336;17.172;2022-11-23T12:34:28;3.10;99.90
17587;DHT22;8912;52.336;17.172;2022-11-23T12:37:08;3.20;99.90
17587;DHT22;8912;52.336;17.172;2022-11-23T12:42:41;3.40;99.90
17587;DHT22;8912;52.336;17.172;2022-11-23T12:45:36;3.30;99.90
17587;DHT22;8912;52.336;17.172;2022-11-23T12:48:34;3.20;99.90
17587;DHT22;8912;52.336;17.172;2022-11-23T12:51:14;3.10;99.90
17587;DHT22;8912;52.336;17.172;2022-11-23T12:53:52;3.10;99.90
17587;DHT22;8912;52.336;17.172;2022-11-23T12:56:43;3.10;99.90
17587;DHT22;8912;52.336;17.172;2022-11-23T12:59:13;3.10;99.90
17587;DHT22;8912;52.336;17.172;2022-11-23T13:01:47;3.10;99.90
17587;DHT22;8912;52.336;17.172;2022-11-23T13:04:46;3.20;99.90
17587;DHT22;8912;52.336;17.172;2022-11-23T13:07:46;3.20;99.90
17587;DHT22;8912;52.336;17.172;2022-11-23T13:10:37;3.30;99.90
17587;DHT22;8912;52.336;17.172;2022-11-23T13:13:25;3.20;99.90
17587;DHT22;8912;52.336;17.172;2022-11-23T13:16:23;3.30;99.90
17587;DHT22;8912;52.336;17.172;2022-11-23T13:19:01;3.40;99.90
17587;DHT22;8912;52.336;17.172;2022-11-23T13:21:36;4.00;99.90
17587;DHT22;8912;52.336;17.172;2022-11-23T13:24:24;3.40;99.90
17587;DHT22;8912;52.336;17.172;2022-11-23T13:30:07;3.20;99.90
17587;DHT22;8912;52.336;17.172;2022-11-23T13:32:56;3.30;99.90
17587;DHT22;8912;52.336;17.172;2022-11-23T13:35:46;3.30;99.90
17587;DHT22;8912;52.336;17.172;2022-11-23T13:38:41;3.40;99.90
17587;DHT22;8912;52.336;17.172;2022-11-23T13:44:24;3.20;99.90
17587;DHT22;8912;52.336;17.172;2022-11-23T13:47:05;3.20;99.90
17587;DHT22;8912;52.336;17.172;2022-11-23T13:49:39;3.10;99.90
17587;DHT22;8912;52.336;17.172;2022-11-23T13:52:33;3.10;99.90
17587;DHT22;8912;52.336;17.172;2022-11-23T13:55:18;3.10;99.90
17587;DHT22;8912;52.336;17.172;2022-11-23T14:00:48;3.10;99.90
17587;DHT22;8912;52.336;17.172;2022-11-23T14:06:37;3.00;99.90
17587;DHT22;8912;52.336;17.172;2022-11-23T14:09:15;4.20;99.90
17587;DHT22;8912;52.336;17.172;2022-11-23T14:12:02;2.90;99.90
17587;DHT22;8912;52.336;17.172;2022-11-23T14:14:54;2.90;99.90
17587;DHT22;8912;52.336;17.172;2022-11-23T14:17:40;2.80;99.90
17587;DHT22;8912;52.336;17.172;2022-11-23T14:20:23;2.90;99.90
17587;DHT22;8912;52.336;17.172;2022-11-23T14:23:06;2.80;99.90
17587;DHT22;8912;52.336;17.172;2022-11-23T14:25:48;2.80;99.90
17587;DHT22;8912;52.336;17.172;2022-11-23T14:28:33;2.80;99.90
17587;DHT22;8912;52.336;17.172;2022-11-23T14:31:16;2.90;99.90
17587;DHT22;8912;52.336;17.172;2022-11-23T14:33:53;2.90;99.90
17587;DHT22;8912;52.336;17.172;2022-11-23T14:36:34;2.80;99.90
17587;DHT22;8912;52.336;17.172;2022-11-23T14:39:34;2.80;99.90
17587;DHT22;8912;52.336;17.172;2022-11-23T14:42:11;2.90;99.90
17587;DHT22;8912;52.336;17.172;2022-11-23T14:44:43;2.90;99.90
17587;DHT22;8912;52.336;17.172;2022-11-23T14:47:12;3.00;99.90
17587;DHT22;8912;52.336;17.172;2022-11-23T14:49:48;3.00;99.90
17587;DHT22;8912;52.336;17.172;2022-11-23T14:52:20;3.00;99.90
17587;DHT22;8912;52.336;17.172;2022-11-23T14:54:49;2.90;99.90
17587;DHT22;8912;52.336;17.172;2022-11-23T14:57:19;3.00;99.90
17587;DHT22;8912;52.336;17.172;2022-11-23T14:59:53;3.00;99.90
17587;DHT22;8912;52.336;17.172;2022-11-23T15:02:26;2.90;99.90
17587;DHT22;8912;52.336;17.172;2022-11-23T15:05:05;2.90;99.90
17587;DHT22;8912;52.336;17.172;2022-11-23T15:07:45;2.80;99.90
17587;DHT22;8912;52.336;17.172;2022-11-23T15:10:25;2.80;99.90
17587;DHT22;8912;52.336;17.172;2022-11-23T15:12:55;2.80;99.90
17587;DHT22;8912;52.336;17.172;2022-11-23T15:15:27;2.80;99.90
17587;DHT22;8912;52.336;17.172;2022-11-23T15:18:00;2.80;99.90
17587;DHT22;8912;52.336;17.172;2022-11-23T15:20:31;2.90;99.90
17587;DHT22;8912;52.336;17.172;2022-11-23T15:23:01;2.80;99.90
17587;DHT22;8912;52.336;17.172;2022-11-23T15:25:30;2.90;99.90
17587;DHT22;8912;52.336;17.172;2022-11-23T15:28:02;2.80;99.90
17587;DHT22;8912;52.336;17.172;2022-11-23T15:30:33;2.80;99.90
17587;DHT22;8912;52.336;17.172;2022-11-23T15:33:09;2.80;99.90
17587;DHT22;8912;52.336;17.172;2022-11-23T15:35:39;2.90;99.90
17587;DHT22;8912;52.336;17.172;2022-11-23T15:38:12;2.80;99.90
17587;DHT22;8912;52.336;17.172;2022-11-23T15:40:49;2.80;99.90
17587;DHT22;8912;52.336;17.172;2022-11-23T15:43:19;2.80;99.90
17587;DHT22;8912;52.336;17.172;2022-11-23T15:46:03;2.80;99.90
17587;DHT22;8912;52.336;17.172;2022-11-23T15:48:33;2.90;99.90
17587;DHT22;8912;52.336;17.172;2022-11-23T15:51:05;2.90;99.90
17587;DHT22;8912;52.336;17.172;2022-11-23T15:53:43;2.80;99.90
17587;DHT22;8912;52.336;17.172;2022-11-23T15:56:18;2.80;99.90
17587;DHT22;8912;52.336;17.172;2022-11-23T15:58:49;2.80;99.90
17587;DHT22;8912;52.336;17.172;2022-11-23T16:01:21;2.90;99.90
17587;DHT22;8912;52.336;17.172;2022-11-23T16:03:51;2.80;99.90
17587;DHT22;8912;52.336;17.172;2022-11-23T16:06:24;2.80;99.90
17587;DHT22;8912;52.336;17.172;2022-11-23T16:09:01;2.80;99.90
17587;DHT22;8912;52.336;17.172;2022-11-23T16:11:50;2.80;99.90
17587;DHT22;8912;52.336;17.172;2022-11-23T16:14:26;2.80;99.90
17587;DHT22;8912;52.336;17.172;2022-11-23T16:17:13;2.80;99.90
17587;DHT22;8912;52.336;17.172;2022-11-23T16:19:46;2.80;99.90
17587;DHT22;8912;52.336;17.172;2022-11-23T16:22:26;2.80;99.90
17587;DHT22;8912;52.336;17.172;2022-11-23T16:25:05;2.80;99.90
17587;DHT22;8912;52.336;17.172;2022-11-23T16:27:35;2.80;99.90
17587;DHT22;8912;52.336;17.172;2022-11-23T16:30:05;2.80;99.90
17587;DHT22;8912;52.336;17.172;2022-11-23T16:32:36;2.80;99.90
17587;DHT22;8912;52.336;17.172;2022-11-23T16:35:14;2.90;99.90
17587;DHT22;8912;52.336;17.172;2022-11-23T16:37:44;2.90;99.90
17587;DHT22;8912;52.336;17.172;2022-11-23T16:40:14;2.90;99.90
17587;DHT22;8912;52.336;17.172;2022-11-23T16:42:43;2.80;99.90
17587;DHT22;8912;52.336;17.172;2022-11-23T16:45:14;2.90;99.90